sensor_id;sensor_type;location;lat;lon;timestamp;P1;durP1;ratioP1;P2;durP2;ratioP2
12308;SDS011;6217;48.150;17.142;2022-11-15T00:04:04;35.83;;;23.65;;
12308;SDS011;6217;48.150;17.142;2022-11-15T00:08:30;35.50;;;23.08;;
12308;SDS011;6217;48.150;17.142;2022-11-15T00:12:55;36.25;;;24.98;;
12308;SDS011;6217;48.150;17.142;2022-11-15T00:17:19;35.05;;;23.08;;
12308;SDS011;6217;48.150;17.142;2022-11-15T00:21:43;41.25;;;23.52;;
12308;SDS011;6217;48.150;17.142;2022-11-15T00:26:11;34.65;;;23.90;;
12308;SDS011;6217;48.150;17.142;2022-11-15T00:30:37;52.90;;;27.02;;
12308;SDS011;6217;48.150;17.142;2022-11-15T00:35:01;53.63;;;27.65;;
12308;SDS011;6217;48.150;17.142;2022-11-15T00:39:25;37.40;;;24.02;;
12308;SDS011;6217;48.150;17.142;2022-11-15T00:43:50;48.38;;;27.58;;
12308;SDS011;6217;48.150;17.142;2022-11-15T00:48:14;47.92;;;28.05;;
12308;SDS011;6217;48.150;17.142;2022-11-15T00:52:39;44.50;;;25.90;;
12308;SDS011;6217;48.150;17.142;2022-11-15T00:57:03;51.78;;;26.15;;
12308;SDS011;6217;48.150;17.142;2022-11-15T01:01:28;43.65;;;27.40;;
12308;SDS011;6217;48.150;17.142;2022-11-15T01:05:52;44.67;;;27.02;;
12308;SDS011;6217;48.150;17.142;2022-11-15T01:10:17;47.60;;;26.58;;
12308;SDS011;6217;48.150;17.142;2022-11-15T01:14:41;46.22;;;28.52;;
12308;SDS011;6217;48.150;17.142;2022-11-15T01:19:06;42.50;;;27.48;;
12308;SDS011;6217;48.150;17.142;2022-11-15T01:23:30;42.58;;;27.02;;
12308;SDS011;6217;48.150;17.142;2022-11-15T01:27:54;41.45;;;26.13;;
12308;SDS011;6217;48.150;17.142;2022-11-15T01:32:19;45.03;;;26.80;;
12308;SDS011;6217;48.150;17.142;2022-11-15T01:36:43;48.92;;;28.52;;
12308;SDS011;6217;48.150;17.142;2022-11-15T01:41:17;49.88;;;28.38;;
12308;SDS011;6217;48.150;17.142;2022-11-15T01:45:43;42.20;;;27.23;;
12308;SDS011;6217;48.150;17.142;2022-11-15T01:50:14;45.28;;;26.77;;
12308;SDS011;6217;48.150;17.142;2022-11-15T01:54:43;47.83;;;27.35;;
12308;SDS011;6217;48.150;17.142;2022-11-15T01:59:08;46.65;;;28.00;;
12308;SDS011;6217;48.150;17.142;2022-11-15T02:03:35;47.55;;;26.70;;
12308;SDS011;6217;48.150;17.142;2022-11-15T02:08:06;48.47;;;27.73;;
12308;SDS011;6217;48.150;17.142;2022-11-15T02:12:32;49.25;;;29.00;;
12308;SDS011;6217;48.150;17.142;2022-11-15T02:21:37;46.10;;;28.52;;
12308;SDS011;6217;48.150;17.142;2022-11-15T02:31:17;48.35;;;30.45;;
12308;SDS011;6217;48.150;17.142;2022-11-15T02:36:42;43.80;;;27.90;;
12308;SDS011;6217;48.150;17.142;2022-11-15T02:41:06;51.25;;;29.92;;
12308;SDS011;6217;48.150;17.142;2022-11-15T02:45:44;49.45;;;30.63;;
12308;SDS011;6217;48.150;17.142;2022-11-15T02:50:19;51.50;;;30.08;;
12308;SDS011;6217;48.150;17.142;2022-11-15T02:54:54;55.13;;;31.02;;
12308;SDS011;6217;48.150;17.142;2022-11-15T03:08:48;54.95;;;31.52;;
12308;SDS011;6217;48.150;17.142;2022-11-15T03:22:24;58.60;;;34.65;;
12308;SDS011;6217;48.150;17.142;2022-11-15T03:26:51;51.80;;;31.17;;
12308;SDS011;6217;48.150;17.142;2022-11-15T03:31:18;56.47;;;33.47;;
12308;SDS011;6217;48.150;17.142;2022-11-15T03:36:05;53.95;;;32.50;;
12308;SDS011;6217;48.150;17.142;2022-11-15T03:40:33;55.42;;;30.73;;
12308;SDS011;6217;48.150;17.142;2022-11-15T03:45:08;58.92;;;35.00;;
12308;SDS011;6217;48.150;17.142;2022-11-15T03:49:42;58.60;;;36.22;;
12308;SDS011;6217;48.150;17.142;2022-11-15T03:54:11;54.65;;;34.05;;
12308;SDS011;6217;48.150;17.142;2022-11-15T03:58:35;54.30;;;34.67;;
12308;SDS011;6217;48.150;17.142;2022-11-15T04:03:00;59.65;;;36.28;;
12308;SDS011;6217;48.150;17.142;2022-11-15T04:07:24;58.13;;;35.80;;
12308;SDS011;6217;48.150;17.142;2022-11-15T04:11:48;62.30;;;37.22;;
12308;SDS011;6217;48.150;17.142;2022-11-15T04:16:13;62.28;;;37.15;;
12308;SDS011;6217;48.150;17.142;2022-11-15T04:20:37;61.08;;;35.85;;
12308;SDS011;6217;48.150;17.142;2022-11-15T04:25:21;54.30;;;34.17;;
12308;SDS011;6217;48.150;17.142;2022-11-15T04:29:45;59.47;;;35.63;;
12308;SDS011;6217;48.150;17.142;2022-11-15T04:34:09;58.05;;;34.70;;
12308;SDS011;6217;48.150;17.142;2022-11-15T04:38:34;56.78;;;31.30;;
12308;SDS011;6217;48.150;17.142;2022-11-15T04:42:59;56.72;;;36.30;;
12308;SDS011;6217;48.150;17.142;2022-11-15T04:47:24;55.60;;;33.22;;
12308;SDS011;6217;48.150;17.142;2022-11-15T04:51:48;55.83;;;34.50;;
12308;SDS011;6217;48.150;17.142;2022-11-15T04:56:12;58.47;;;34.70;;
12308;SDS011;6217;48.150;17.142;2022-11-15T05:00:37;58.90;;;34.45;;
12308;SDS011;6217;48.150;17.142;2022-11-15T05:05:01;50.95;;;33.80;;
12308;SDS011;6217;48.150;17.142;2022-11-15T05:09:26;51.78;;;34.05;;
12308;SDS011;6217;48.150;17.142;2022-11-15T05:13:50;53.67;;;32.60;;
12308;SDS011;6217;48.150;17.142;2022-11-15T05:18:15;55.60;;;34.03;;
12308;SDS011;6217;48.150;17.142;2022-11-15T05:22:39;50.20;;;32.67;;
12308;SDS011;6217;48.150;17.142;2022-11-15T05:27:04;49.67;;;32.05;;
12308;SDS011;6217;48.150;17.142;2022-11-15T05:31:28;53.17;;;32.90;;
12308;SDS011;6217;48.150;17.142;2022-11-15T05:35:57;47.45;;;32.47;;
12308;SDS011;6217;48.150;17.142;2022-11-15T05:40:26;46.75;;;32.00;;
12308;SDS011;6217;48.150;17.142;2022-11-15T05:44:52;48.85;;;30.13;;
12308;SDS011;6217;48.150;17.142;2022-11-15T05:49:17;46.70;;;29.92;;
12308;SDS011;6217;48.150;17.142;2022-11-15T05:53:45;46.50;;;30.42;;
12308;SDS011;6217;48.150;17.142;2022-11-15T05:58:10;44.75;;;31.45;;
12308;SDS011;6217;48.150;17.142;2022-11-15T06:02:35;46.03;;;30.83;;
12308;SDS011;6217;48.150;17.142;2022-11-15T06:06:59;48.58;;;31.08;;
12308;SDS011;6217;48.150;17.142;2022-11-15T06:11:23;49.90;;;29.50;;
12308;SDS011;6217;48.150;17.142;2022-11-15T06:15:48;43.45;;;27.77;;
12308;SDS011;6217;48.150;17.142;2022-11-15T06:20:12;49.13;;;29.73;;
12308;SDS011;6217;48.150;17.142;2022-11-15T06:24:37;46.10;;;27.83;;
12308;SDS011;6217;48.150;17.142;2022-11-15T06:29:02;37.75;;;26.55;;
12308;SDS011;6217;48.150;17.142;2022-11-15T06:33:28;46.42;;;28.58;;
12308;SDS011;6217;48.150;17.142;2022-11-15T06:37:52;38.42;;;25.48;;
12308;SDS011;6217;48.150;17.142;2022-11-15T06:42:17;40.33;;;26.88;;
12308;SDS011;6217;48.150;17.142;2022-11-15T06:46:41;38.40;;;24.95;;
12308;SDS011;6217;48.150;17.142;2022-11-15T06:51:06;36.20;;;23.42;;
12308;SDS011;6217;48.150;17.142;2022-11-15T06:55:31;32.38;;;21.95;;
12308;SDS011;6217;48.150;17.142;2022-11-15T06:59:55;34.55;;;23.83;;
12308;SDS011;6217;48.150;17.142;2022-11-15T07:04:20;36.17;;;23.15;;
12308;SDS011;6217;48.150;17.142;2022-11-15T07:08:44;30.30;;;20.67;;
12308;SDS011;6217;48.150;17.142;2022-11-15T07:13:09;28.95;;;21.38;;
12308;SDS011;6217;48.150;17.142;2022-11-15T07:17:33;36.65;;;20.40;;
12308;SDS011;6217;48.150;17.142;2022-11-15T07:21:58;29.50;;;21.45;;
12308;SDS011;6217;48.150;17.142;2022-11-15T07:26:22;29.23;;;20.17;;
12308;SDS011;6217;48.150;17.142;2022-11-15T07:30:46;30.95;;;21.17;;
12308;SDS011;6217;48.150;17.142;2022-11-15T07:35:11;28.85;;;20.27;;
12308;SDS011;6217;48.150;17.142;2022-11-15T07:39:35;31.95;;;19.13;;
12308;SDS011;6217;48.150;17.142;2022-11-15T07:43:59;27.45;;;19.08;;
12308;SDS011;6217;48.150;17.142;2022-11-15T07:48:24;32.75;;;20.85;;
12308;SDS011;6217;48.150;17.142;2022-11-15T07:52:53;30.58;;;20.60;;
12308;SDS011;6217;48.150;17.142;2022-11-15T07:57:18;26.65;;;17.65;;
12308;SDS011;6217;48.150;17.142;2022-11-15T08:01:43;28.60;;;20.33;;
12308;SDS011;6217;48.150;17.142;2022-11-15T08:06:07;30.27;;;21.20;;
12308;SDS011;6217;48.150;17.142;2022-11-15T08:10:32;29.83;;;19.88;;
12308;SDS011;6217;48.150;17.142;2022-11-15T08:14:57;25.58;;;19.40;;
12308;SDS011;6217;48.150;17.142;2022-11-15T08:19:21;28.65;;;20.63;;
12308;SDS011;6217;48.150;17.142;2022-11-15T08:23:45;33.30;;;20.30;;
12308;SDS011;6217;48.150;17.142;2022-11-15T08:28:10;25.83;;;19.77;;
12308;SDS011;6217;48.150;17.142;2022-11-15T08:32:34;35.00;;;21.38;;
12308;SDS011;6217;48.150;17.142;2022-11-15T08:36:59;27.35;;;19.10;;
12308;SDS011;6217;48.150;17.142;2022-11-15T08:41:44;28.60;;;21.15;;
12308;SDS011;6217;48.150;17.142;2022-11-15T08:46:11;27.60;;;21.42;;
12308;SDS011;6217;48.150;17.142;2022-11-15T08:50:37;34.45;;;21.58;;
12308;SDS011;6217;48.150;17.142;2022-11-15T08:55:01;33.22;;;21.42;;
12308;SDS011;6217;48.150;17.142;2022-11-15T08:59:25;28.20;;;19.75;;
12308;SDS011;6217;48.150;17.142;2022-11-15T09:03:50;33.47;;;22.33;;
12308;SDS011;6217;48.150;17.142;2022-11-15T09:08:14;30.40;;;21.85;;
12308;SDS011;6217;48.150;17.142;2022-11-15T09:12:39;30.63;;;21.55;;
12308;SDS011;6217;48.150;17.142;2022-11-15T09:17:03;30.38;;;21.23;;
12308;SDS011;6217;48.150;17.142;2022-11-15T09:21:30;30.60;;;19.70;;
12308;SDS011;6217;48.150;17.142;2022-11-15T09:25:59;29.48;;;21.70;;
12308;SDS011;6217;48.150;17.142;2022-11-15T09:30:24;26.75;;;19.35;;
12308;SDS011;6217;48.150;17.142;2022-11-15T09:34:49;32.50;;;21.30;;
12308;SDS011;6217;48.150;17.142;2022-11-15T09:39:14;34.80;;;21.60;;
12308;SDS011;6217;48.150;17.142;2022-11-15T09:43:56;31.58;;;21.05;;
12308;SDS011;6217;48.150;17.142;2022-11-15T09:48:35;32.40;;;21.42;;
12308;SDS011;6217;48.150;17.142;2022-11-15T09:53:08;34.03;;;19.75;;
12308;SDS011;6217;48.150;17.142;2022-11-15T10:06:10;32.45;;;22.50;;
12308;SDS011;6217;48.150;17.142;2022-11-15T10:10:32;32.40;;;22.67;;
12308;SDS011;6217;48.150;17.142;2022-11-15T10:14:47;32.22;;;23.70;;
12308;SDS011;6217;48.150;17.142;2022-11-15T10:23:07;31.45;;;22.25;;
12308;SDS011;6217;48.150;17.142;2022-11-15T10:27:18;30.50;;;23.02;;
12308;SDS011;6217;48.150;17.142;2022-11-15T10:31:26;36.80;;;25.73;;
12308;SDS011;6217;48.150;17.142;2022-11-15T10:35:33;31.65;;;23.15;;
12308;SDS011;6217;48.150;17.142;2022-11-15T10:39:39;30.25;;;22.48;;
12308;SDS011;6217;48.150;17.142;2022-11-15T10:43:46;39.78;;;23.65;;
12308;SDS011;6217;48.150;17.142;2022-11-15T10:52:18;33.13;;;22.75;;
12308;SDS011;6217;48.150;17.142;2022-11-15T10:56:26;38.80;;;24.88;;
12308;SDS011;6217;48.150;17.142;2022-11-15T11:00:33;35.22;;;26.15;;
12308;SDS011;6217;48.150;17.142;2022-11-15T11:04:48;39.08;;;26.08;;
12308;SDS011;6217;48.150;17.142;2022-11-15T11:08:59;34.78;;;23.75;;
12308;SDS011;6217;48.150;17.142;2022-11-15T11:13:13;42.35;;;26.25;;
12308;SDS011;6217;48.150;17.142;2022-11-15T11:17:27;38.95;;;25.30;;
12308;SDS011;6217;48.150;17.142;2022-11-15T11:22:09;40.00;;;26.52;;
12308;SDS011;6217;48.150;17.142;2022-11-15T11:26:39;36.15;;;26.88;;
12308;SDS011;6217;48.150;17.142;2022-11-15T11:31:24;48.00;;;31.13;;
12308;SDS011;6217;48.150;17.142;2022-11-15T11:35:55;41.63;;;28.45;;
12308;SDS011;6217;48.150;17.142;2022-11-15T11:40:30;40.80;;;28.30;;
12308;SDS011;6217;48.150;17.142;2022-11-15T11:49:20;39.38;;;26.60;;
12308;SDS011;6217;48.150;17.142;2022-11-15T11:53:39;46.53;;;29.58;;
12308;SDS011;6217;48.150;17.142;2022-11-15T12:02:38;45.00;;;30.80;;
12308;SDS011;6217;48.150;17.142;2022-11-15T12:06:52;44.30;;;32.28;;
12308;SDS011;6217;48.150;17.142;2022-11-15T12:15:30;42.13;;;29.88;;
12308;SDS011;6217;48.150;17.142;2022-11-15T12:19:56;44.13;;;31.58;;
12308;SDS011;6217;48.150;17.142;2022-11-15T12:24:08;44.67;;;29.13;;
12308;SDS011;6217;48.150;17.142;2022-11-15T12:28:40;44.67;;;29.70;;
12308;SDS011;6217;48.150;17.142;2022-11-15T12:32:54;44.13;;;28.83;;
12308;SDS011;6217;48.150;17.142;2022-11-15T12:37:02;46.60;;;28.92;;
12308;SDS011;6217;48.150;17.142;2022-11-15T12:46:04;43.30;;;29.33;;
12308;SDS011;6217;48.150;17.142;2022-11-15T12:50:12;41.27;;;27.73;;
12308;SDS011;6217;48.150;17.142;2022-11-15T13:02:47;43.85;;;26.60;;
12308;SDS011;6217;48.150;17.142;2022-11-15T13:07:01;38.53;;;27.95;;
12308;SDS011;6217;48.150;17.142;2022-11-15T13:15:58;43.28;;;29.08;;
12308;SDS011;6217;48.150;17.142;2022-11-15T13:24:16;42.73;;;29.20;;
12308;SDS011;6217;48.150;17.142;2022-11-15T13:28:24;41.83;;;28.70;;
12308;SDS011;6217;48.150;17.142;2022-11-15T13:32:42;38.00;;;26.63;;
12308;SDS011;6217;48.150;17.142;2022-11-15T13:36:48;43.72;;;28.17;;
12308;SDS011;6217;48.150;17.142;2022-11-15T13:40:54;44.70;;;29.55;;
12308;SDS011;6217;48.150;17.142;2022-11-15T13:45:03;43.30;;;29.65;;
12308;SDS011;6217;48.150;17.142;2022-11-15T13:49:09;49.15;;;30.42;;
12308;SDS011;6217;48.150;17.142;2022-11-15T13:53:18;45.67;;;30.80;;
12308;SDS011;6217;48.150;17.142;2022-11-15T13:57:29;41.30;;;28.10;;
12308;SDS011;6217;48.150;17.142;2022-11-15T14:01:44;48.03;;;31.40;;
12308;SDS011;6217;48.150;17.142;2022-11-15T14:10:17;46.75;;;29.85;;
12308;SDS011;6217;48.150;17.142;2022-11-15T14:14:34;45.20;;;30.70;;
12308;SDS011;6217;48.150;17.142;2022-11-15T14:18:51;44.25;;;29.63;;
12308;SDS011;6217;48.150;17.142;2022-11-15T14:22:59;40.03;;;28.45;;
12308;SDS011;6217;48.150;17.142;2022-11-15T14:31:31;36.75;;;25.55;;
12308;SDS011;6217;48.150;17.142;2022-11-15T14:35:37;43.90;;;25.75;;
12308;SDS011;6217;48.150;17.142;2022-11-15T14:39:43;46.05;;;27.45;;
12308;SDS011;6217;48.150;17.142;2022-11-15T14:43:50;35.65;;;24.73;;
12308;SDS011;6217;48.150;17.142;2022-11-15T14:47:56;37.58;;;25.15;;
12308;SDS011;6217;48.150;17.142;2022-11-15T14:52:02;33.83;;;25.00;;
12308;SDS011;6217;48.150;17.142;2022-11-15T14:56:40;34.20;;;22.58;;
12308;SDS011;6217;48.150;17.142;2022-11-15T15:00:47;32.70;;;23.15;;
12308;SDS011;6217;48.150;17.142;2022-11-15T15:04:53;36.05;;;24.27;;
12308;SDS011;6217;48.150;17.142;2022-11-15T15:08:59;33.70;;;24.52;;
12308;SDS011;6217;48.150;17.142;2022-11-15T15:13:05;39.88;;;25.25;;
12308;SDS011;6217;48.150;17.142;2022-11-15T15:17:15;33.17;;;22.95;;
12308;SDS011;6217;48.150;17.142;2022-11-15T15:21:25;33.58;;;22.98;;
12308;SDS011;6217;48.150;17.142;2022-11-15T15:25:33;30.98;;;20.80;;
12308;SDS011;6217;48.150;17.142;2022-11-15T15:29:40;32.78;;;22.27;;
12308;SDS011;6217;48.150;17.142;2022-11-15T15:33:45;29.30;;;21.38;;
12308;SDS011;6217;48.150;17.142;2022-11-15T15:37:51;33.20;;;24.27;;
12308;SDS011;6217;48.150;17.142;2022-11-15T15:41:57;30.33;;;20.38;;
12308;SDS011;6217;48.150;17.142;2022-11-15T15:46:03;29.63;;;20.83;;
12308;SDS011;6217;48.150;17.142;2022-11-15T15:50:31;29.50;;;22.00;;
12308;SDS011;6217;48.150;17.142;2022-11-15T15:54:37;31.23;;;21.08;;
12308;SDS011;6217;48.150;17.142;2022-11-15T15:58:43;33.75;;;23.35;;
12308;SDS011;6217;48.150;17.142;2022-11-15T16:02:49;32.42;;;22.23;;
12308;SDS011;6217;48.150;17.142;2022-11-15T16:06:58;40.20;;;23.80;;
12308;SDS011;6217;48.150;17.142;2022-11-15T16:11:05;34.17;;;22.58;;
12308;SDS011;6217;48.150;17.142;2022-11-15T16:15:11;34.03;;;24.02;;
12308;SDS011;6217;48.150;17.142;2022-11-15T16:19:17;39.25;;;27.80;;
12308;SDS011;6217;48.150;17.142;2022-11-15T16:23:22;39.95;;;26.95;;
12308;SDS011;6217;48.150;17.142;2022-11-15T16:27:29;44.30;;;26.58;;
12308;SDS011;6217;48.150;17.142;2022-11-15T16:31:35;43.72;;;28.92;;
12308;SDS011;6217;48.150;17.142;2022-11-15T16:35:41;45.10;;;27.90;;
12308;SDS011;6217;48.150;17.142;2022-11-15T16:39:46;44.75;;;29.60;;
12308;SDS011;6217;48.150;17.142;2022-11-15T16:43:52;50.85;;;30.55;;
12308;SDS011;6217;48.150;17.142;2022-11-15T16:47:58;47.83;;;30.13;;
12308;SDS011;6217;48.150;17.142;2022-11-15T16:52:04;52.38;;;34.92;;
12308;SDS011;6217;48.150;17.142;2022-11-15T16:56:21;48.08;;;31.17;;
12308;SDS011;6217;48.150;17.142;2022-11-15T17:00:29;56.78;;;35.08;;
12308;SDS011;6217;48.150;17.142;2022-11-15T17:04:35;52.78;;;33.88;;
12308;SDS011;6217;48.150;17.142;2022-11-15T17:08:40;51.25;;;36.20;;
12308;SDS011;6217;48.150;17.142;2022-11-15T17:12:46;52.88;;;33.20;;
12308;SDS011;6217;48.150;17.142;2022-11-15T17:16:53;51.85;;;37.63;;
12308;SDS011;6217;48.150;17.142;2022-11-15T17:21:02;55.15;;;36.47;;
12308;SDS011;6217;48.150;17.142;2022-11-15T17:25:09;61.80;;;36.03;;
12308;SDS011;6217;48.150;17.142;2022-11-15T17:29:15;61.67;;;38.25;;
12308;SDS011;6217;48.150;17.142;2022-11-15T17:33:21;58.17;;;38.28;;
12308;SDS011;6217;48.150;17.142;2022-11-15T17:37:27;60.85;;;39.50;;
12308;SDS011;6217;48.150;17.142;2022-11-15T17:41:32;60.80;;;40.17;;
12308;SDS011;6217;48.150;17.142;2022-11-15T17:45:41;65.72;;;42.58;;
12308;SDS011;6217;48.150;17.142;2022-11-15T17:49:47;65.20;;;39.42;;
12308;SDS011;6217;48.150;17.142;2022-11-15T17:53:53;66.13;;;42.30;;
12308;SDS011;6217;48.150;17.142;2022-11-15T17:58:00;70.45;;;41.25;;
12308;SDS011;6217;48.150;17.142;2022-11-15T18:02:05;66.93;;;41.30;;
12308;SDS011;6217;48.150;17.142;2022-11-15T18:06:11;62.58;;;40.55;;
12308;SDS011;6217;48.150;17.142;2022-11-15T18:10:17;64.35;;;40.38;;
12308;SDS011;6217;48.150;17.142;2022-11-15T18:14:23;57.03;;;39.22;;
12308;SDS011;6217;48.150;17.142;2022-11-15T18:18:30;66.55;;;40.92;;
12308;SDS011;6217;48.150;17.142;2022-11-15T18:22:37;59.90;;;39.22;;
12308;SDS011;6217;48.150;17.142;2022-11-15T18:26:43;47.40;;;33.35;;
12308;SDS011;6217;48.150;17.142;2022-11-15T18:30:49;55.05;;;37.70;;
12308;SDS011;6217;48.150;17.142;2022-11-15T18:34:54;59.90;;;38.65;;
12308;SDS011;6217;48.150;17.142;2022-11-15T18:39:01;54.05;;;36.92;;
12308;SDS011;6217;48.150;17.142;2022-11-15T18:43:08;60.05;;;37.00;;
12308;SDS011;6217;48.150;17.142;2022-11-15T18:47:14;64.85;;;37.28;;
12308;SDS011;6217;48.150;17.142;2022-11-15T18:51:20;61.28;;;38.13;;
12308;SDS011;6217;48.150;17.142;2022-11-15T18:55:27;61.67;;;40.00;;
12308;SDS011;6217;48.150;17.142;2022-11-15T18:59:33;65.28;;;40.72;;
12308;SDS011;6217;48.150;17.142;2022-11-15T19:03:40;73.22;;;41.83;;
12308;SDS011;6217;48.150;17.142;2022-11-15T19:07:47;65.70;;;37.20;;
12308;SDS011;6217;48.150;17.142;2022-11-15T19:11:53;63.15;;;39.75;;
12308;SDS011;6217;48.150;17.142;2022-11-15T19:15:59;61.55;;;36.80;;
12308;SDS011;6217;48.150;17.142;2022-11-15T19:20:06;60.22;;;36.90;;
12308;SDS011;6217;48.150;17.142;2022-11-15T19:24:12;63.63;;;38.10;;
12308;SDS011;6217;48.150;17.142;2022-11-15T19:28:19;63.15;;;36.53;;
12308;SDS011;6217;48.150;17.142;2022-11-15T19:32:26;67.80;;;37.08;;
12308;SDS011;6217;48.150;17.142;2022-11-15T19:36:33;63.63;;;35.67;;
12308;SDS011;6217;48.150;17.142;2022-11-15T19:40:41;69.80;;;39.03;;
12308;SDS011;6217;48.150;17.142;2022-11-15T19:44:47;73.13;;;38.42;;
12308;SDS011;6217;48.150;17.142;2022-11-15T19:48:52;60.80;;;33.88;;
12308;SDS011;6217;48.150;17.142;2022-11-15T19:52:58;62.17;;;34.05;;
12308;SDS011;6217;48.150;17.142;2022-11-15T19:57:04;69.50;;;34.42;;
12308;SDS011;6217;48.150;17.142;2022-11-15T20:01:17;59.63;;;33.95;;
12308;SDS011;6217;48.150;17.142;2022-11-15T20:05:27;55.78;;;30.42;;
12308;SDS011;6217;48.150;17.142;2022-11-15T20:09:33;52.10;;;27.48;;
12308;SDS011;6217;48.150;17.142;2022-11-15T20:13:39;53.75;;;28.23;;
12308;SDS011;6217;48.150;17.142;2022-11-15T20:17:45;55.33;;;29.38;;
12308;SDS011;6217;48.150;17.142;2022-11-15T20:21:51;54.90;;;29.42;;
12308;SDS011;6217;48.150;17.142;2022-11-15T20:25:57;54.53;;;30.10;;
12308;SDS011;6217;48.150;17.142;2022-11-15T20:30:03;48.75;;;28.90;;
12308;SDS011;6217;48.150;17.142;2022-11-15T20:34:09;46.22;;;26.92;;
12308;SDS011;6217;48.150;17.142;2022-11-15T20:38:15;46.45;;;27.17;;
12308;SDS011;6217;48.150;17.142;2022-11-15T20:42:21;45.38;;;25.80;;
12308;SDS011;6217;48.150;17.142;2022-11-15T20:46:27;46.97;;;28.90;;
12308;SDS011;6217;48.150;17.142;2022-11-15T20:50:32;49.28;;;27.50;;
12308;SDS011;6217;48.150;17.142;2022-11-15T20:54:38;54.60;;;31.92;;
12308;SDS011;6217;48.150;17.142;2022-11-15T20:58:44;52.42;;;30.27;;
12308;SDS011;6217;48.150;17.142;2022-11-15T21:02:50;57.60;;;32.97;;
12308;SDS011;6217;48.150;17.142;2022-11-15T21:06:57;54.17;;;33.00;;
12308;SDS011;6217;48.150;17.142;2022-11-15T21:11:02;59.58;;;31.15;;
12308;SDS011;6217;48.150;17.142;2022-11-15T21:15:27;61.95;;;32.53;;
12308;SDS011;6217;48.150;17.142;2022-11-15T21:19:33;60.92;;;35.13;;
12308;SDS011;6217;48.150;17.142;2022-11-15T21:23:39;64.78;;;35.22;;
12308;SDS011;6217;48.150;17.142;2022-11-15T21:27:47;59.75;;;34.15;;
12308;SDS011;6217;48.150;17.142;2022-11-15T21:31:56;65.30;;;33.33;;
12308;SDS011;6217;48.150;17.142;2022-11-15T21:36:02;70.20;;;35.90;;
12308;SDS011;6217;48.150;17.142;2022-11-15T21:40:08;78.20;;;38.45;;
12308;SDS011;6217;48.150;17.142;2022-11-15T21:44:15;70.95;;;37.70;;
12308;SDS011;6217;48.150;17.142;2022-11-15T21:48:21;72.43;;;37.03;;
12308;SDS011;6217;48.150;17.142;2022-11-15T21:52:26;72.38;;;37.70;;
12308;SDS011;6217;48.150;17.142;2022-11-15T21:56:32;77.47;;;39.00;;
12308;SDS011;6217;48.150;17.142;2022-11-15T22:00:38;79.22;;;39.88;;
12308;SDS011;6217;48.150;17.142;2022-11-15T22:05:03;81.68;;;39.63;;
12308;SDS011;6217;48.150;17.142;2022-11-15T22:09:09;72.35;;;38.20;;
12308;SDS011;6217;48.150;17.142;2022-11-15T22:13:15;77.60;;;38.42;;
12308;SDS011;6217;48.150;17.142;2022-11-15T22:17:21;80.20;;;40.53;;
12308;SDS011;6217;48.150;17.142;2022-11-15T22:21:28;78.88;;;41.22;;
12308;SDS011;6217;48.150;17.142;2022-11-15T22:25:34;75.38;;;39.40;;
12308;SDS011;6217;48.150;17.142;2022-11-15T22:29:40;91.03;;;44.78;;
12308;SDS011;6217;48.150;17.142;2022-11-15T22:33:46;87.95;;;41.53;;
12308;SDS011;6217;48.150;17.142;2022-11-15T22:37:51;88.13;;;41.25;;
12308;SDS011;6217;48.150;17.142;2022-11-15T22:41:57;85.43;;;43.92;;
12308;SDS011;6217;48.150;17.142;2022-11-15T22:46:03;83.95;;;39.63;;
12308;SDS011;6217;48.150;17.142;2022-11-15T22:50:09;94.93;;;44.60;;
12308;SDS011;6217;48.150;17.142;2022-11-15T22:54:15;84.97;;;39.85;;
12308;SDS011;6217;48.150;17.142;2022-11-15T22:58:21;86.97;;;40.83;;
12308;SDS011;6217;48.150;17.142;2022-11-15T23:02:28;82.35;;;38.08;;
12308;SDS011;6217;48.150;17.142;2022-11-15T23:06:34;79.55;;;39.65;;
12308;SDS011;6217;48.150;17.142;2022-11-15T23:10:40;86.43;;;38.03;;
12308;SDS011;6217;48.150;17.142;2022-11-15T23:15:05;85.93;;;36.67;;
12308;SDS011;6217;48.150;17.142;2022-11-15T23:19:11;78.68;;;39.28;;
12308;SDS011;6217;48.150;17.142;2022-11-15T23:23:17;73.63;;;36.75;;
12308;SDS011;6217;48.150;17.142;2022-11-15T23:27:23;75.93;;;33.60;;
12308;SDS011;6217;48.150;17.142;2022-11-15T23:31:29;76.88;;;38.38;;
12308;SDS011;6217;48.150;17.142;2022-11-15T23:35:54;72.45;;;36.33;;
12308;SDS011;6217;48.150;17.142;2022-11-15T23:39:59;79.93;;;37.70;;
12308;SDS011;6217;48.150;17.142;2022-11-15T23:44:05;66.03;;;34.20;;
12308;SDS011;6217;48.150;17.142;2022-11-15T23:48:11;76.35;;;36.10;;
12308;SDS011;6217;48.150;17.142;2022-11-15T23:52:17;86.82;;;38.33;;
12308;SDS011;6217;48.150;17.142;2022-11-15T23:56:23;77.40;;;37.05;;
